createdAt,value
2022-09-10T00:01:54.749Z,0.95
2022-09-10T00:04:22.037Z,0.90
2022-09-10T00:06:50.071Z,0.90
2022-09-10T00:09:17.318Z,0.70
2022-09-10T00:11:45.841Z,0.70
2022-09-10T00:14:15.745Z,1.02
2022-09-10T00:16:42.969Z,0.82
2022-09-10T00:19:10.215Z,0.73
2022-09-10T00:21:37.466Z,0.70
2022-09-10T00:24:05.526Z,0.70
2022-09-10T00:26:38.119Z,0.70
2022-09-10T00:29:07.112Z,0.60
2022-09-10T00:31:34.914Z,0.60
2022-09-10T00:34:03.430Z,0.80
2022-09-10T00:36:36.050Z,0.85
2022-09-10T00:39:05.078Z,1.08
2022-09-10T00:41:33.812Z,0.82
2022-09-10T00:44:01.240Z,0.63
2022-09-10T00:47:04.184Z,0.73
2022-09-10T00:49:33.350Z,0.90
2022-09-10T00:52:01.022Z,0.82
2022-09-10T00:54:29.390Z,0.75
2022-09-10T00:56:58.367Z,0.65
2022-09-10T00:59:26.590Z,1.02
2022-09-10T01:01:55.560Z,1.02
2022-09-10T01:04:23.227Z,0.73
2022-09-10T01:06:51.982Z,0.73
2022-09-10T01:09:20.266Z,1.08
2022-09-10T01:11:47.747Z,0.75
2022-09-10T01:14:20.797Z,0.98
2022-09-10T01:17:06.632Z,0.80
2022-09-10T01:20:08.408Z,1.00
2022-09-10T01:22:47.896Z,0.80
2022-09-10T01:25:15.090Z,0.90
2022-09-10T01:27:47.118Z,0.63
2022-09-10T01:30:15.180Z,0.80
2022-09-10T01:33:01.378Z,0.77
2022-09-10T01:35:37.026Z,0.70
2022-09-10T01:38:09.491Z,1.20
2022-09-10T01:40:37.639Z,0.50
2022-09-10T01:47:05.346Z,0.60
2022-09-10T01:52:08.703Z,0.63
2022-09-10T01:54:56.444Z,0.65
2022-09-10T01:57:30.268Z,1.02
2022-09-10T02:00:13.990Z,0.60
2022-09-10T02:02:43.815Z,0.70
2022-09-10T02:05:12.134Z,0.52
2022-09-10T02:07:39.905Z,0.80
2022-09-10T02:10:11.364Z,0.75
2022-09-10T02:12:45.338Z,0.55
2022-09-10T02:15:25.077Z,0.63
2022-09-10T02:18:09.665Z,0.80
2022-09-10T02:20:38.857Z,0.73
2022-09-10T02:23:06.924Z,0.60
2022-09-10T02:25:36.469Z,0.70
2022-09-10T02:28:05.003Z,0.90
2022-09-10T02:30:32.963Z,0.70
2022-09-10T02:33:00.426Z,0.70
2022-09-10T02:35:28.288Z,0.60
2022-09-10T02:37:56.793Z,0.60
2022-09-10T02:40:23.997Z,0.50
2022-09-10T02:42:51.195Z,0.63
2022-09-10T02:45:23.919Z,0.80
2022-09-10T02:47:51.164Z,0.63
2022-09-10T02:50:18.881Z,0.50
2022-09-10T02:52:46.436Z,0.60
2022-09-10T02:55:14.131Z,0.65
2022-09-10T02:57:43.599Z,0.80
2022-09-10T03:00:11.443Z,0.70
2022-09-10T03:02:38.198Z,0.70
2022-09-10T03:05:05.679Z,0.57
2022-09-10T03:07:34.303Z,0.70
2022-09-10T03:10:01.676Z,0.73
2022-09-10T03:12:28.880Z,0.70
2022-09-10T03:14:57.790Z,0.65
2022-09-10T03:17:25.154Z,0.77
2022-09-10T03:19:52.564Z,0.82
2022-09-10T03:22:21.390Z,0.68
2022-09-10T03:24:48.671Z,0.90
2022-09-10T03:27:18.108Z,0.70
2022-09-10T03:29:45.406Z,0.80
2022-09-10T03:32:14.211Z,0.65
2022-09-10T03:34:41.458Z,1.02
2022-09-10T03:37:08.752Z,0.80
2022-09-10T03:39:36.541Z,1.00
2022-09-10T03:42:05.289Z,0.75
2022-09-10T03:44:33.705Z,0.88
2022-09-10T03:47:01.335Z,0.70
2022-09-10T03:49:28.781Z,0.88
2022-09-10T03:51:56.175Z,0.80
2022-09-10T03:54:24.842Z,0.90
2022-09-10T03:56:52.111Z,0.88
2022-09-10T03:59:19.527Z,0.95
2022-09-10T04:01:48.033Z,0.88
2022-09-10T04:04:15.286Z,0.80
2022-09-10T04:06:44.513Z,0.82
2022-09-10T04:09:12.601Z,0.88
2022-09-10T04:11:40.134Z,0.90
2022-09-10T04:14:07.734Z,1.75
2022-09-10T04:16:37.486Z,1.08
2022-09-10T04:19:06.599Z,0.70
2022-09-10T04:21:34.754Z,0.90
2022-09-10T04:24:03.080Z,0.90
2022-09-10T04:26:30.631Z,1.10
2022-09-10T04:28:57.539Z,0.80
2022-09-10T04:31:24.771Z,0.75
2022-09-10T04:33:55.922Z,0.90
2022-09-10T04:36:26.192Z,0.98
2022-09-10T04:38:53.834Z,1.00
2022-09-10T04:41:21.046Z,0.85
2022-09-10T04:43:48.238Z,1.10
2022-09-10T04:46:17.547Z,1.15
2022-09-10T04:48:45.181Z,1.08
2022-09-10T04:51:18.162Z,0.85
2022-09-10T04:53:54.070Z,0.95
2022-09-10T04:56:26.364Z,0.88
2022-09-10T04:58:53.761Z,0.90
2022-09-10T05:01:21.052Z,1.02
2022-09-10T05:03:52.039Z,0.70
2022-09-10T05:06:20.387Z,1.10
2022-09-10T05:08:48.501Z,0.98
2022-09-10T05:11:16.064Z,0.98
2022-09-10T05:13:43.797Z,0.80
2022-09-10T05:16:12.684Z,0.80
2022-09-10T05:18:40.694Z,1.08
2022-09-10T05:21:08.820Z,0.77
2022-09-10T05:23:35.835Z,0.82
2022-09-10T05:26:03.061Z,1.02
2022-09-10T05:28:31.013Z,1.30
2022-09-10T05:30:58.440Z,1.48
2022-09-10T05:33:27.847Z,0.90
2022-09-10T05:35:56.391Z,1.10
2022-09-10T05:38:25.193Z,0.95
2022-09-10T05:40:53.937Z,0.80
2022-09-10T05:43:22.524Z,0.90
2022-09-10T05:45:51.948Z,1.02
2022-09-10T05:48:20.095Z,0.80
2022-09-10T05:50:47.799Z,0.98
2022-09-10T05:53:15.676Z,1.02
2022-09-10T05:55:43.913Z,1.15
2022-09-10T05:58:11.197Z,1.05
2022-09-10T06:00:43.147Z,1.17
2022-09-10T06:03:10.793Z,0.68
2022-09-10T06:05:53.876Z,0.80
2022-09-10T06:08:25.170Z,0.80
2022-09-10T06:10:57.702Z,0.90
2022-09-10T06:13:27.519Z,0.93
2022-09-10T06:15:56.780Z,1.10
2022-09-10T06:18:27.016Z,1.08
2022-09-10T06:21:12.346Z,0.93
2022-09-10T06:23:41.589Z,1.02
2022-09-10T06:26:13.782Z,0.82
2022-09-10T06:28:41.968Z,1.17
2022-09-10T06:31:11.905Z,0.85
2022-09-10T06:33:39.218Z,0.80
2022-09-10T06:36:07.391Z,0.75
2022-09-10T06:38:35.985Z,0.93
2022-09-10T06:41:07.047Z,0.95
2022-09-10T06:43:42.406Z,0.82
2022-09-10T06:49:11.828Z,1.17
2022-09-10T06:51:41.308Z,0.90
2022-09-10T06:54:09.821Z,1.00
2022-09-10T06:56:38.134Z,1.00
2022-09-10T06:59:05.691Z,1.17
2022-09-10T07:01:42.317Z,0.80
2022-09-10T07:04:09.886Z,0.80
2022-09-10T07:06:38.346Z,1.05
2022-09-10T07:09:16.437Z,1.15
2022-09-10T07:12:04.922Z,0.85
2022-09-10T07:14:35.639Z,1.15
2022-09-10T07:17:06.303Z,0.98
2022-09-10T07:19:36.258Z,1.00
2022-09-10T07:22:06.401Z,1.00
2022-09-10T07:24:34.602Z,1.02
2022-09-10T07:27:06.836Z,0.98
2022-09-10T07:29:35.745Z,1.23
2022-09-10T07:32:04.437Z,0.98
2022-09-10T07:34:32.665Z,1.02
2022-09-10T07:37:01.879Z,1.27
2022-09-10T07:39:30.431Z,1.20
2022-09-10T07:41:57.973Z,1.15
2022-09-10T07:44:28.046Z,1.27
2022-09-10T07:46:59.212Z,1.05
2022-09-10T07:49:27.865Z,0.90
2022-09-10T07:51:59.689Z,1.42
2022-09-10T07:54:31.605Z,1.15
2022-09-10T07:57:00.150Z,1.27
2022-09-10T07:59:28.114Z,1.67
2022-09-10T08:02:01.024Z,1.25
2022-09-10T08:04:36.842Z,1.10
2022-09-10T08:07:07.011Z,1.00
2022-09-10T08:09:36.775Z,1.50
2022-09-10T08:12:07.616Z,1.00
2022-09-10T08:14:40.485Z,1.60
2022-09-10T08:17:08.612Z,1.95
2022-09-10T08:19:40.130Z,1.20
2022-09-10T08:22:11.441Z,1.48
2022-09-10T08:24:44.497Z,1.40
2022-09-10T08:27:11.956Z,1.10
2022-09-10T08:29:39.674Z,1.35
2022-09-10T08:32:09.046Z,1.05
2022-09-10T08:34:36.991Z,1.80
2022-09-10T08:37:07.585Z,1.30
2022-09-10T08:39:36.561Z,1.40
2022-09-10T08:42:06.796Z,0.98
2022-09-10T08:44:59.642Z,1.02
2022-09-10T08:47:39.504Z,1.20
2022-09-10T08:50:21.212Z,2.15
2022-09-10T08:52:58.581Z,1.70
2022-09-10T08:55:31.806Z,1.30
2022-09-10T08:58:02.426Z,1.00
2022-09-10T09:00:33.706Z,1.40
2022-09-10T09:03:25.935Z,1.30
2022-09-10T09:05:59.201Z,1.40
2022-09-10T09:08:37.637Z,1.23
2022-09-10T09:14:02.826Z,1.17
2022-09-10T09:16:39.703Z,1.15
2022-09-10T09:19:23.702Z,1.35
2022-09-10T09:21:54.745Z,1.20
2022-09-10T09:24:33.876Z,1.25
2022-09-10T09:27:09.912Z,1.15
2022-09-10T09:29:44.430Z,1.08
2022-09-10T09:32:16.101Z,1.23
2022-09-10T09:34:43.401Z,1.05
2022-09-10T09:37:16.910Z,1.38
2022-09-10T09:40:12.531Z,0.90
2022-09-10T09:42:40.320Z,0.90
2022-09-10T09:45:15.003Z,0.77
2022-09-10T09:47:44.931Z,1.10
2022-09-10T09:50:12.615Z,1.10
2022-09-10T09:52:41.200Z,1.60
2022-09-10T09:55:23.593Z,1.10
2022-09-10T09:57:53.531Z,1.00
2022-09-10T10:00:36.197Z,1.15
2022-09-10T10:03:15.183Z,1.00
2022-09-10T10:05:42.793Z,1.00
2022-09-10T10:08:29.135Z,1.13
2022-09-10T10:10:56.422Z,0.90
2022-09-10T10:13:24.294Z,0.98
2022-09-10T10:15:52.194Z,0.90
2022-09-10T10:18:22.482Z,1.23
2022-09-10T10:20:53.239Z,1.20
2022-09-10T10:23:36.841Z,2.03
2022-09-10T10:26:20.259Z,1.02
2022-09-10T10:28:49.004Z,1.33
2022-09-10T10:31:17.142Z,0.98
2022-09-10T10:33:53.010Z,1.15
2022-09-10T10:36:25.121Z,1.10
2022-09-10T10:38:59.595Z,1.13
2022-09-10T10:41:42.702Z,1.10
2022-09-10T10:44:39.821Z,1.10
2022-09-10T10:47:25.979Z,1.25
2022-09-10T10:50:03.425Z,0.80
2022-09-10T10:52:37.281Z,1.00
2022-09-10T10:55:19.732Z,1.25
2022-09-10T10:58:05.960Z,0.70
2022-09-10T11:00:40.750Z,1.13
2022-09-10T11:03:18.220Z,1.50
2022-09-10T11:05:48.295Z,1.27
2022-09-10T11:08:21.564Z,1.10
2022-09-10T11:10:53.853Z,1.52
2022-09-10T11:13:21.988Z,0.98
2022-09-10T11:15:53.160Z,0.68
2022-09-10T11:18:30.806Z,0.98
2022-09-10T11:21:13.354Z,0.90
2022-09-10T11:23:47.354Z,1.02
2022-09-10T11:26:23.869Z,1.00
2022-09-10T11:29:05.107Z,1.33
2022-09-10T11:31:37.353Z,1.30
2022-09-10T11:34:12.249Z,0.85
2022-09-10T11:36:58.489Z,0.90
2022-09-10T11:39:25.630Z,1.40
2022-09-10T11:41:54.817Z,0.95
2022-09-10T11:44:25.028Z,0.90
2022-09-10T11:46:52.171Z,0.80
2022-09-10T11:49:22.936Z,0.82
2022-09-10T11:51:50.491Z,0.98
2022-09-10T11:54:19.470Z,0.98
2022-09-10T11:57:06.541Z,1.00
2022-09-10T11:59:46.025Z,0.75
2022-09-10T12:02:16.143Z,0.70
2022-09-10T12:05:02.658Z,0.98
2022-09-10T12:07:49.769Z,0.73
2022-09-10T12:10:31.079Z,0.60
2022-09-10T12:12:58.603Z,0.75
2022-09-10T12:15:27.195Z,1.05
2022-09-10T12:17:54.420Z,0.80
2022-09-10T12:20:27.373Z,0.63
2022-09-10T12:22:56.008Z,1.58
2022-09-10T12:25:25.392Z,0.70
2022-09-10T12:27:53.891Z,1.70
2022-09-10T12:30:36.286Z,0.88
2022-09-10T12:33:24.803Z,0.80
2022-09-10T12:35:52.228Z,0.77
2022-09-10T12:38:38.070Z,0.70
2022-09-10T12:41:09.518Z,1.05
2022-09-10T12:43:42.579Z,0.65
2022-09-10T12:46:09.927Z,0.68
2022-09-10T12:48:47.917Z,0.70
2022-09-10T12:51:18.159Z,0.50
2022-09-10T12:53:58.726Z,0.55
2022-09-10T12:56:34.375Z,0.50
2022-09-10T12:59:24.830Z,0.43
2022-09-10T13:01:52.784Z,0.43
2022-09-10T13:04:28.480Z,0.32
2022-09-10T13:07:03.943Z,0.47
2022-09-10T13:09:33.080Z,0.70
2022-09-10T13:12:04.114Z,0.45
2022-09-10T13:14:38.157Z,0.68
2022-09-10T13:17:05.384Z,0.40
2022-09-10T13:19:32.638Z,0.75
2022-09-10T13:21:59.807Z,1.30
2022-09-10T13:24:33.955Z,0.50
2022-09-10T13:27:13.427Z,0.60
2022-09-10T13:29:42.500Z,0.60
2022-09-10T13:32:27.146Z,0.38
2022-09-10T13:35:13.323Z,0.43
2022-09-10T13:37:44.080Z,0.40
2022-09-10T13:40:22.325Z,0.80
2022-09-10T13:43:09.430Z,0.40
2022-09-10T13:45:40.071Z,0.60
2022-09-10T13:48:26.024Z,0.60
2022-09-10T13:51:09.597Z,0.60
2022-09-10T13:53:40.023Z,0.70
2022-09-10T13:56:14.296Z,0.52
2022-09-10T13:58:45.592Z,0.50
2022-09-10T14:01:12.864Z,0.65
2022-09-10T14:03:44.886Z,0.50
2022-09-10T14:06:15.705Z,0.77
2022-09-10T14:08:54.612Z,0.50
2022-09-10T14:11:24.614Z,0.35
2022-09-10T14:14:00.120Z,0.40
2022-09-10T14:16:31.820Z,0.50
2022-09-10T14:19:01.371Z,0.47
2022-09-10T14:21:28.784Z,0.32
2022-09-10T14:23:58.094Z,0.40
2022-09-10T14:26:27.297Z,0.40
2022-09-10T14:28:55.763Z,0.30
2022-09-10T14:31:26.543Z,0.50
2022-09-10T14:34:14.047Z,0.50
2022-09-10T14:36:40.817Z,0.30
2022-09-10T14:39:18.107Z,0.30
2022-09-10T14:41:45.336Z,0.35
2022-09-10T14:44:23.112Z,0.22
2022-09-10T14:46:52.709Z,0.45
2022-09-10T14:49:25.610Z,0.30
2022-09-10T14:51:53.183Z,0.30
2022-09-10T14:54:20.506Z,0.30
2022-09-10T14:56:48.322Z,0.30
2022-09-10T14:59:17.376Z,0.30
2022-09-10T15:01:45.852Z,0.30
2022-09-10T15:04:17.507Z,0.20
2022-09-10T15:06:44.874Z,0.38
2022-09-10T15:09:13.115Z,0.40
2022-09-10T15:11:47.720Z,0.30
2022-09-10T15:14:15.850Z,0.30
2022-09-10T15:16:44.034Z,0.30
2022-09-10T15:19:11.908Z,0.30
2022-09-10T15:21:40.196Z,0.30
2022-09-10T15:24:07.872Z,0.32
2022-09-10T15:26:35.115Z,0.40
2022-09-10T15:29:02.298Z,0.32
2022-09-10T15:31:32.643Z,0.40
2022-09-10T15:34:00.114Z,0.50
2022-09-10T15:36:28.335Z,0.40
2022-09-10T15:38:56.052Z,0.30
2022-09-10T15:41:22.851Z,0.60
2022-09-10T15:43:50.201Z,0.40
2022-09-10T15:46:18.544Z,0.47
2022-09-10T15:48:47.471Z,0.57
2022-09-10T15:51:17.060Z,0.40
2022-09-10T15:53:46.094Z,0.50
2022-09-10T15:56:13.120Z,0.43
2022-09-10T15:58:40.447Z,0.40
2022-09-10T16:01:07.680Z,0.40
2022-09-10T16:03:35.324Z,0.45
2022-09-10T16:06:06.920Z,0.50
2022-09-10T16:08:34.424Z,0.40
2022-09-10T16:11:07.817Z,0.75
2022-09-10T16:13:35.465Z,0.30
2022-09-10T16:16:03.626Z,0.50
2022-09-10T16:18:31.866Z,0.50
2022-09-10T16:21:11.568Z,0.40
2022-09-10T16:23:39.364Z,0.40
2022-09-10T16:26:07.625Z,0.30
2022-09-10T16:28:35.219Z,0.45
2022-09-10T16:31:31.929Z,0.22
2022-09-10T16:34:00.694Z,0.40
2022-09-10T16:36:28.109Z,0.50
2022-09-10T16:38:56.830Z,0.40
2022-09-10T16:41:24.899Z,0.40
2022-09-10T16:43:52.247Z,0.60
2022-09-10T16:46:19.799Z,0.43
2022-09-10T16:48:47.036Z,0.40
2022-09-10T16:51:18.023Z,0.50
2022-09-10T16:53:46.890Z,0.30
2022-09-10T16:56:14.999Z,0.40
2022-09-10T16:58:42.776Z,0.50
2022-09-10T17:01:10.444Z,0.52
2022-09-10T17:03:41.355Z,0.40
2022-09-10T17:06:14.943Z,0.32
2022-09-10T17:08:43.462Z,0.50
2022-09-10T17:11:10.819Z,0.50
2022-09-10T17:13:37.950Z,0.50
2022-09-10T17:16:19.300Z,0.40
2022-09-10T17:18:46.894Z,0.80
2022-09-10T17:21:14.739Z,0.88
2022-09-10T17:23:42.096Z,1.20
2022-09-10T17:26:09.853Z,1.50
2022-09-10T17:28:37.886Z,1.70
2022-09-10T17:31:05.557Z,1.40
2022-09-10T17:33:33.570Z,0.82
2022-09-10T17:36:02.023Z,0.82
2022-09-10T17:38:30.386Z,0.93
2022-09-10T17:40:58.624Z,0.65
2022-09-10T17:43:27.536Z,1.25
2022-09-10T17:45:55.278Z,0.80
2022-09-10T17:48:27.591Z,0.70
2022-09-10T17:50:55.507Z,0.60
2022-09-10T17:53:24.732Z,0.65
2022-09-10T17:55:53.026Z,0.70
2022-09-10T17:58:22.669Z,1.10
2022-09-10T18:00:50.861Z,0.88
2022-09-10T18:03:18.846Z,0.80
2022-09-10T18:05:46.221Z,0.70
2022-09-10T18:08:13.578Z,1.38
2022-09-10T18:10:40.764Z,1.40
2022-09-10T18:13:08.200Z,1.15
2022-09-10T18:15:40.532Z,1.08
2022-09-10T18:18:08.447Z,1.20
2022-09-10T18:20:35.615Z,1.00
2022-09-10T18:23:02.806Z,1.13
2022-09-10T18:25:30.619Z,1.08
2022-09-10T18:27:58.265Z,0.93
2022-09-10T18:30:28.561Z,0.90
2022-09-10T18:32:55.776Z,0.93
2022-09-10T18:35:23.031Z,1.00
2022-09-10T18:37:51.861Z,1.08
2022-09-10T18:40:19.728Z,1.05
2022-09-10T18:42:47.832Z,0.85
2022-09-10T18:45:15.274Z,1.08
2022-09-10T18:47:44.921Z,0.85
2022-09-10T18:50:13.636Z,0.90
2022-09-10T18:52:40.392Z,1.35
2022-09-10T18:55:07.783Z,1.50
2022-09-10T18:57:34.951Z,1.10
2022-09-10T19:00:02.249Z,1.08
2022-09-10T19:02:29.531Z,0.80
2022-09-10T19:05:12.526Z,1.08
2022-09-10T19:07:39.959Z,1.23
2022-09-10T19:10:07.676Z,1.13
2022-09-10T19:12:35.260Z,0.95
2022-09-10T19:15:02.424Z,1.50
2022-09-10T19:17:29.650Z,1.00
2022-09-10T19:19:57.941Z,1.02
2022-09-10T19:22:25.202Z,1.10
2022-09-10T19:24:55.564Z,1.15
2022-09-10T19:27:24.295Z,1.65
2022-09-10T19:29:51.928Z,1.23
2022-09-10T19:32:20.133Z,1.40
2022-09-10T19:34:49.947Z,1.20
2022-09-10T19:37:17.278Z,1.10
2022-09-10T19:39:44.830Z,1.30
2022-09-10T19:42:12.513Z,1.40
2022-09-10T19:44:39.513Z,1.10
2022-09-10T19:47:06.835Z,1.00
2022-09-10T19:49:34.418Z,1.10
2022-09-10T19:52:01.942Z,0.88
2022-09-10T19:54:30.397Z,1.23
2022-09-10T19:56:57.691Z,1.30
2022-09-10T19:59:24.896Z,1.20
2022-09-10T20:01:52.246Z,1.33
2022-09-10T20:04:19.510Z,1.05
2022-09-10T20:06:47.669Z,0.95
2022-09-10T20:09:15.175Z,1.02
2022-09-10T20:11:42.697Z,1.08
2022-09-10T20:14:14.337Z,1.17
2022-09-10T20:16:45.530Z,1.40
2022-09-10T20:19:14.101Z,1.23
2022-09-10T20:21:42.180Z,1.58
2022-09-10T20:24:09.716Z,0.90
2022-09-10T20:26:38.223Z,0.98
2022-09-10T20:29:11.302Z,1.45
2022-09-10T20:31:41.261Z,1.27
2022-09-10T20:34:11.006Z,1.02
2022-09-10T20:36:43.802Z,1.13
2022-09-10T20:39:13.598Z,1.20
2022-09-10T20:41:40.978Z,0.98
2022-09-10T20:44:08.525Z,1.25
2022-09-10T20:46:35.751Z,1.00
2022-09-10T20:49:03.455Z,1.25
2022-09-10T20:51:35.139Z,1.40
2022-09-10T20:54:06.793Z,1.13
2022-09-10T20:56:34.035Z,1.08
2022-09-10T20:59:01.964Z,1.02
2022-09-10T21:01:31.196Z,1.27
2022-09-10T21:03:59.709Z,1.35
2022-09-10T21:06:31.375Z,1.70
2022-09-10T21:08:58.768Z,1.20
2022-09-10T21:11:28.523Z,1.05
2022-09-10T21:13:57.050Z,1.58
2022-09-10T21:16:28.605Z,1.30
2022-09-10T21:19:00.753Z,1.30
2022-09-10T21:21:29.755Z,1.48
2022-09-10T21:24:01.141Z,1.20
2022-09-10T21:26:29.760Z,1.20
2022-09-10T21:28:58.347Z,1.15
2022-09-10T21:31:27.237Z,1.30
2022-09-10T21:33:58.384Z,1.20
2022-09-10T21:36:28.232Z,1.45
2022-09-10T21:38:56.534Z,1.80
2022-09-10T21:41:28.704Z,1.05
2022-09-10T21:43:55.961Z,1.00
2022-09-10T21:46:23.981Z,2.10
2022-09-10T21:48:51.515Z,1.08
2022-09-10T21:51:20.114Z,1.25
2022-09-10T21:53:47.619Z,1.45
2022-09-10T21:56:16.320Z,1.42
2022-09-10T21:58:44.683Z,0.95
2022-09-10T22:01:19.589Z,1.13
2022-09-10T22:03:47.540Z,1.30
2022-09-10T22:06:19.056Z,1.23
2022-09-10T22:09:00.250Z,1.33
2022-09-10T22:11:40.659Z,1.25
2022-09-10T22:14:15.386Z,1.02
2022-09-10T22:16:42.906Z,1.02
2022-09-10T22:19:12.278Z,1.00
2022-09-10T22:21:39.512Z,0.95
2022-09-10T22:24:07.987Z,1.30
2022-09-10T22:26:37.733Z,1.20
2022-09-10T22:29:04.940Z,1.20
2022-09-10T22:31:33.387Z,1.15
2022-09-10T22:34:02.060Z,1.08
2022-09-10T22:36:31.549Z,0.95
2022-09-10T22:39:09.416Z,1.02
2022-09-10T22:41:37.025Z,1.27
2022-09-10T22:44:04.630Z,1.10
2022-09-10T22:46:32.120Z,1.10
2022-09-10T22:48:59.456Z,1.02
2022-09-10T22:51:28.094Z,1.20
2022-09-10T22:53:55.900Z,0.90
2022-09-10T22:56:26.065Z,1.17
2022-09-10T22:58:54.084Z,1.00
2022-09-10T23:01:22.741Z,0.90
2022-09-10T23:03:50.210Z,1.20
2022-09-10T23:06:21.826Z,1.00
2022-09-10T23:08:50.718Z,1.27
2022-09-10T23:11:19.293Z,1.00
2022-09-10T23:13:47.410Z,1.15
2022-09-10T23:16:16.260Z,1.10
2022-09-10T23:18:44.206Z,0.73
2022-09-10T23:21:11.089Z,0.98
2022-09-10T23:23:38.320Z,1.40
2022-09-10T23:26:09.281Z,1.20
2022-09-10T23:28:37.066Z,0.95
2022-09-10T23:31:08.333Z,1.10
2022-09-10T23:33:35.752Z,0.90
2022-09-10T23:36:03.633Z,1.08
2022-09-10T23:38:31.486Z,1.17
2022-09-10T23:41:02.782Z,0.90
2022-09-10T23:43:30.003Z,0.93
2022-09-10T23:45:57.220Z,0.90
2022-09-10T23:48:24.532Z,1.10
2022-09-10T23:50:55.140Z,1.10
2022-09-10T23:53:23.111Z,1.17
2022-09-10T23:55:50.290Z,0.70
2022-09-10T23:58:17.471Z,1.10
